OAL406 LGAV-LGKR
Flight info
| Callsign | OAL406 |
|---|---|
| Flight time | 0h 49m |
| Altitude | 24000 |
| Route | KOR1N KOR L53 PARNA PARNA1P |
| Aircraft | DH8D/M-SDE2E3FGRY/H |
Departure
| Time | 2026-05-07 12:28 |
|---|---|
| Airport | Athens Eleftherios Venizelos International Airport (LGAV) |
Arrival
| Time | 2026-05-07 13:17 |
|---|---|
| Airport | Corfu Ioannis Kapodistrias International Airport (LGKR) |
| Time | Latitude | Longitude | Altitude | Speed | Heading |
|---|---|---|---|---|---|
| 2026-05-07 12:11 | 37.93999 | 23.95336 | 317 ft | 0 kts | 38° |
| 2026-05-07 12:18 | 37.93999 | 23.95337 | 317 ft | 0 kts | 38° |
| 2026-05-07 12:19 | 37.93990 | 23.95328 | 317 ft | 2 kts | 38° |
| 2026-05-07 12:19 | 37.93979 | 23.95315 | 317 ft | 2 kts | 51° |
| 2026-05-07 12:19 | 37.93971 | 23.95299 | 317 ft | 2 kts | 63° |
| 2026-05-07 12:20 | 37.93966 | 23.95281 | 317 ft | 2 kts | 76° |
| 2026-05-07 12:20 | 37.93964 | 23.95263 | 317 ft | 2 kts | 88° |
| 2026-05-07 12:20 | 37.93964 | 23.95244 | 317 ft | 2 kts | 100° |
| 2026-05-07 12:20 | 37.93968 | 23.95226 | 317 ft | 2 kts | 112° |
| 2026-05-07 12:21 | 37.93975 | 23.95209 | 317 ft | 2 kts | 124° |
| 2026-05-07 12:21 | 37.93978 | 23.95204 | 317 ft | 0 kts | 127° |
| 2026-05-07 12:24 | 37.93948 | 23.95254 | 317 ft | 14 kts | 128° |
| 2026-05-07 12:24 | 37.93885 | 23.95360 | 317 ft | 14 kts | 129° |
| 2026-05-07 12:25 | 37.93854 | 23.95466 | 317 ft | 12 kts | 65° |
| 2026-05-07 12:25 | 37.93933 | 23.95548 | 317 ft | 19 kts | 37° |
| 2026-05-07 12:25 | 37.94066 | 23.95676 | 317 ft | 27 kts | 38° |
| 2026-05-07 12:25 | 37.94232 | 23.95833 | 317 ft | 29 kts | 34° |
| 2026-05-07 12:26 | 37.94338 | 23.95938 | 317 ft | 10 kts | 42° |
| 2026-05-07 12:26 | 37.94399 | 23.95993 | 317 ft | 10 kts | 34° |
| 2026-05-07 12:26 | 37.94416 | 23.96035 | 317 ft | 4 kts | 182° |
| 2026-05-07 12:26 | 37.94389 | 23.96031 | 317 ft | 2 kts | 189° |
| 2026-05-07 12:27 | 37.94366 | 23.96027 | 317 ft | 5 kts | 186° |
| 2026-05-07 12:27 | 37.94313 | 23.96019 | 317 ft | 11 kts | 186° |
| 2026-05-07 12:27 | 37.94161 | 23.95990 | 317 ft | 31 kts | 196° |
| 2026-05-07 12:27 | 37.93781 | 23.95681 | 318 ft | 107 kts | 217° |
| 2026-05-07 12:28 | 37.93039 | 23.94975 | 409 ft | 151 kts | 217° |
| 2026-05-07 12:28 | 37.92179 | 23.94111 | 941 ft | 165 kts | 221° |
| 2026-05-07 12:28 | 37.91399 | 23.93035 | 1605 ft | 171 kts | 230° |
| 2026-05-07 12:28 | 37.90688 | 23.91818 | 2310 ft | 178 kts | 234° |
| 2026-05-07 12:29 | 37.89979 | 23.90547 | 3010 ft | 181 kts | 231° |
| 2026-05-07 12:29 | 37.89152 | 23.89206 | 3352 ft | 202 kts | 229° |
| 2026-05-07 12:29 | 37.88236 | 23.87860 | 3974 ft | 206 kts | 227° |
| 2026-05-07 12:29 | 37.87261 | 23.86503 | 4579 ft | 210 kts | 226° |
| 2026-05-07 12:30 | 37.86272 | 23.85172 | 5247 ft | 211 kts | 226° |
| 2026-05-07 12:30 | 37.85256 | 23.83836 | 5828 ft | 215 kts | 226° |
| 2026-05-07 12:30 | 37.84212 | 23.82493 | 6463 ft | 215 kts | 225° |
| 2026-05-07 12:30 | 37.83257 | 23.81011 | 7014 ft | 219 kts | 246° |
| 2026-05-07 12:31 | 37.83179 | 23.79133 | 7499 ft | 221 kts | 288° |
| 2026-05-07 12:31 | 37.83812 | 23.77388 | 8114 ft | 220 kts | 297° |
| 2026-05-07 12:31 | 37.84510 | 23.75675 | 8710 ft | 220 kts | 298° |
| 2026-05-07 12:31 | 37.85234 | 23.73953 | 9203 ft | 225 kts | 298° |
| 2026-05-07 12:32 | 37.85972 | 23.72230 | 9839 ft | 221 kts | 299° |
| 2026-05-07 12:32 | 37.86709 | 23.70530 | 10330 ft | 224 kts | 299° |
| 2026-05-07 12:32 | 37.87469 | 23.68790 | 10653 ft | 237 kts | 298° |
| 2026-05-07 12:32 | 37.88291 | 23.66918 | 10991 ft | 243 kts | 298° |
| 2026-05-07 12:33 | 37.89969 | 23.63125 | 11908 ft | 250 kts | 298° |
| 2026-05-07 12:33 | 37.90825 | 23.61198 | 12408 ft | 250 kts | 298° |
| 2026-05-07 12:33 | 37.91676 | 23.59284 | 12859 ft | 250 kts | 298° |
| 2026-05-07 12:34 | 37.92535 | 23.57353 | 13266 ft | 253 kts | 297° |
| 2026-05-07 12:34 | 37.93395 | 23.55425 | 13680 ft | 255 kts | 298° |
| 2026-05-07 12:34 | 37.94270 | 23.53459 | 14151 ft | 254 kts | 298° |
| 2026-05-07 12:34 | 37.95135 | 23.51516 | 14535 ft | 255 kts | 297° |
| 2026-05-07 12:35 | 37.96016 | 23.49538 | 14859 ft | 259 kts | 297° |
| 2026-05-07 12:35 | 37.96863 | 23.47640 | 15719 ft | 236 kts | 297° |
| 2026-05-07 12:35 | 37.97632 | 23.45923 | 16406 ft | 228 kts | 297° |
| 2026-05-07 12:35 | 37.98419 | 23.44150 | 16697 ft | 230 kts | 296° |
| 2026-05-07 12:36 | 37.99204 | 23.42384 | 16942 ft | 236 kts | 296° |
| 2026-05-07 12:36 | 38.00005 | 23.40579 | 17339 ft | 235 kts | 296° |
| 2026-05-07 12:36 | 38.00805 | 23.38779 | 17677 ft | 234 kts | 296° |
| 2026-05-07 12:36 | 38.01603 | 23.36980 | 17998 ft | 236 kts | 296° |
| 2026-05-07 12:37 | 38.02407 | 23.35167 | 18342 ft | 236 kts | 296° |
| 2026-05-07 12:37 | 38.03207 | 23.33365 | 18688 ft | 236 kts | 296° |
| 2026-05-07 12:37 | 38.04015 | 23.31542 | 18977 ft | 238 kts | 296° |
| 2026-05-07 12:37 | 38.04824 | 23.29714 | 19304 ft | 238 kts | 296° |
| 2026-05-07 12:38 | 38.05638 | 23.27878 | 19549 ft | 241 kts | 296° |
| 2026-05-07 12:38 | 38.06455 | 23.26030 | 19845 ft | 242 kts | 296° |
| 2026-05-07 12:38 | 38.07279 | 23.24167 | 20143 ft | 242 kts | 296° |
| 2026-05-07 12:38 | 38.08090 | 23.22332 | 20452 ft | 241 kts | 296° |
| 2026-05-07 12:39 | 38.08923 | 23.20447 | 20636 ft | 246 kts | 296° |
| 2026-05-07 12:39 | 38.09747 | 23.18579 | 20962 ft | 243 kts | 296° |
| 2026-05-07 12:39 | 38.10577 | 23.16699 | 21178 ft | 244 kts | 296° |
| 2026-05-07 12:39 | 38.11405 | 23.14822 | 21395 ft | 245 kts | 296° |
| 2026-05-07 12:40 | 38.12249 | 23.12907 | 21612 ft | 246 kts | 296° |
| 2026-05-07 12:40 | 38.13075 | 23.11032 | 21878 ft | 245 kts | 296° |
| 2026-05-07 12:40 | 38.13910 | 23.09133 | 22044 ft | 246 kts | 296° |
| 2026-05-07 12:40 | 38.14745 | 23.07238 | 22247 ft | 248 kts | 295° |
| 2026-05-07 12:41 | 38.15583 | 23.05329 | 22437 ft | 248 kts | 296° |
| 2026-05-07 12:41 | 38.16413 | 23.03444 | 22670 ft | 247 kts | 296° |
| 2026-05-07 12:41 | 38.17260 | 23.01512 | 22763 ft | 250 kts | 296° |
| 2026-05-07 12:41 | 38.18100 | 22.99598 | 22914 ft | 252 kts | 296° |
| 2026-05-07 12:42 | 38.18959 | 22.97640 | 23126 ft | 251 kts | 296° |
| 2026-05-07 12:42 | 38.19808 | 22.95703 | 23286 ft | 251 kts | 296° |
| 2026-05-07 12:42 | 38.20656 | 22.93768 | 23406 ft | 253 kts | 296° |
| 2026-05-07 12:42 | 38.21508 | 22.91821 | 23549 ft | 254 kts | 296° |
| 2026-05-07 12:43 | 38.22359 | 22.89879 | 23756 ft | 253 kts | 296° |
| 2026-05-07 12:43 | 38.23220 | 22.87911 | 23916 ft | 251 kts | 296° |
| 2026-05-07 12:43 | 38.24067 | 22.85972 | 24056 ft | 253 kts | 296° |
| 2026-05-07 12:43 | 38.24916 | 22.84027 | 24093 ft | 257 kts | 297° |
| 2026-05-07 12:44 | 38.25801 | 22.81998 | 24104 ft | 262 kts | 297° |
| 2026-05-07 12:44 | 38.26685 | 22.79971 | 24098 ft | 268 kts | 297° |
| 2026-05-07 12:44 | 38.27594 | 22.77884 | 24099 ft | 273 kts | 297° |
| 2026-05-07 12:44 | 38.28519 | 22.75760 | 24093 ft | 277 kts | 296° |
| 2026-05-07 12:45 | 38.29460 | 22.73596 | 24097 ft | 281 kts | 297° |
| 2026-05-07 12:45 | 38.30414 | 22.71405 | 24097 ft | 285 kts | 297° |
| 2026-05-07 12:45 | 38.31387 | 22.69166 | 24102 ft | 288 kts | 297° |
| 2026-05-07 12:45 | 38.32354 | 22.66942 | 24101 ft | 291 kts | 296° |
| 2026-05-07 12:46 | 38.33338 | 22.64676 | 24107 ft | 293 kts | 296° |
| 2026-05-07 12:46 | 38.34322 | 22.62408 | 24109 ft | 294 kts | 297° |
| 2026-05-07 12:46 | 38.35318 | 22.60113 | 24116 ft | 296 kts | 297° |
| 2026-05-07 12:46 | 38.36311 | 22.57821 | 24128 ft | 297 kts | 297° |
| 2026-05-07 12:47 | 38.37309 | 22.55519 | 24131 ft | 298 kts | 296° |
| 2026-05-07 12:47 | 38.38297 | 22.53234 | 24130 ft | 299 kts | 297° |
| 2026-05-07 12:47 | 38.39301 | 22.50912 | 24131 ft | 300 kts | 297° |
| 2026-05-07 12:47 | 38.40310 | 22.48578 | 24140 ft | 300 kts | 297° |
| 2026-05-07 12:48 | 38.41316 | 22.46248 | 24149 ft | 301 kts | 297° |
| 2026-05-07 12:48 | 38.42324 | 22.43913 | 24156 ft | 301 kts | 297° |
| 2026-05-07 12:48 | 38.43327 | 22.41586 | 24158 ft | 301 kts | 297° |
| 2026-05-07 12:48 | 38.44333 | 22.39251 | 24161 ft | 302 kts | 297° |
| 2026-05-07 12:49 | 38.45353 | 22.36882 | 24164 ft | 302 kts | 297° |
| 2026-05-07 12:49 | 38.46355 | 22.34554 | 24177 ft | 302 kts | 296° |
| 2026-05-07 12:49 | 38.47364 | 22.32206 | 24183 ft | 302 kts | 296° |
| 2026-05-07 12:49 | 38.48381 | 22.29840 | 24181 ft | 303 kts | 296° |
| 2026-05-07 12:50 | 38.49388 | 22.27492 | 24187 ft | 302 kts | 296° |
| 2026-05-07 12:50 | 38.50400 | 22.25134 | 24190 ft | 303 kts | 297° |
| 2026-05-07 12:50 | 38.51405 | 22.22789 | 24192 ft | 303 kts | 296° |
| 2026-05-07 12:50 | 38.52410 | 22.20441 | 24185 ft | 303 kts | 296° |
| 2026-05-07 12:51 | 38.53429 | 22.18062 | 24181 ft | 304 kts | 297° |
| 2026-05-07 12:51 | 38.54432 | 22.15714 | 24180 ft | 304 kts | 296° |
| 2026-05-07 12:51 | 38.55454 | 22.13322 | 24168 ft | 304 kts | 296° |
| 2026-05-07 12:51 | 38.56455 | 22.10980 | 24160 ft | 304 kts | 296° |
| 2026-05-07 12:52 | 38.57468 | 22.08603 | 24164 ft | 304 kts | 296° |
| 2026-05-07 12:52 | 38.58477 | 22.06238 | 24158 ft | 304 kts | 296° |
| 2026-05-07 12:52 | 38.59484 | 22.03873 | 24146 ft | 304 kts | 297° |
| 2026-05-07 12:52 | 38.60499 | 22.01490 | 24147 ft | 303 kts | 296° |
| 2026-05-07 12:53 | 38.61510 | 21.99112 | 24150 ft | 303 kts | 296° |
| 2026-05-07 12:53 | 38.62500 | 21.96784 | 24156 ft | 302 kts | 297° |
| 2026-05-07 12:53 | 38.63508 | 21.94412 | 24144 ft | 302 kts | 296° |
| 2026-05-07 12:53 | 38.64501 | 21.92068 | 24150 ft | 302 kts | 296° |
| 2026-05-07 12:54 | 38.65510 | 21.89692 | 24148 ft | 302 kts | 296° |
| 2026-05-07 12:54 | 38.66503 | 21.87368 | 24153 ft | 301 kts | 297° |
| 2026-05-07 12:54 | 38.67545 | 21.85019 | 24153 ft | 301 kts | 297° |
| 2026-05-07 12:54 | 38.68581 | 21.82696 | 24148 ft | 301 kts | 297° |
| 2026-05-07 12:55 | 38.69609 | 21.80388 | 24152 ft | 300 kts | 297° |
| 2026-05-07 12:55 | 38.70646 | 21.78055 | 24153 ft | 300 kts | 297° |
| 2026-05-07 12:55 | 38.71679 | 21.75730 | 24154 ft | 300 kts | 297° |
| 2026-05-07 12:55 | 38.72702 | 21.73424 | 24148 ft | 300 kts | 297° |
| 2026-05-07 12:56 | 38.73725 | 21.71117 | 24151 ft | 300 kts | 297° |
| 2026-05-07 12:56 | 38.74759 | 21.68782 | 24150 ft | 300 kts | 297° |
| 2026-05-07 12:56 | 38.75791 | 21.66448 | 24147 ft | 300 kts | 297° |
| 2026-05-07 12:56 | 38.76817 | 21.64128 | 24135 ft | 301 kts | 297° |
| 2026-05-07 12:57 | 38.77846 | 21.61798 | 24134 ft | 301 kts | 297° |
| 2026-05-07 12:57 | 38.78871 | 21.59476 | 24136 ft | 301 kts | 297° |
| 2026-05-07 12:57 | 38.79913 | 21.57113 | 24128 ft | 302 kts | 297° |
| 2026-05-07 12:57 | 38.80944 | 21.54773 | 24124 ft | 303 kts | 297° |
| 2026-05-07 12:58 | 38.81971 | 21.52442 | 24120 ft | 303 kts | 297° |
| 2026-05-07 12:58 | 38.83015 | 21.50071 | 24113 ft | 303 kts | 297° |
| 2026-05-07 12:58 | 38.84049 | 21.47718 | 24111 ft | 304 kts | 297° |
| 2026-05-07 12:58 | 38.85080 | 21.45371 | 24101 ft | 304 kts | 297° |
| 2026-05-07 12:59 | 38.86124 | 21.42996 | 24105 ft | 304 kts | 297° |
| 2026-05-07 12:59 | 38.87156 | 21.40646 | 24110 ft | 304 kts | 297° |
| 2026-05-07 12:59 | 38.88204 | 21.38266 | 24102 ft | 305 kts | 297° |
| 2026-05-07 12:59 | 38.89238 | 21.35904 | 24101 ft | 305 kts | 297° |
| 2026-05-07 13:00 | 38.90271 | 21.33541 | 24111 ft | 305 kts | 297° |
| 2026-05-07 13:00 | 38.91306 | 21.31170 | 24106 ft | 305 kts | 297° |
| 2026-05-07 13:00 | 38.92355 | 21.28766 | 24104 ft | 306 kts | 297° |
| 2026-05-07 13:00 | 38.93383 | 21.26411 | 24103 ft | 306 kts | 296° |
| 2026-05-07 13:01 | 38.94422 | 21.24029 | 24097 ft | 306 kts | 296° |
| 2026-05-07 13:01 | 38.95469 | 21.21631 | 24097 ft | 307 kts | 297° |
| 2026-05-07 13:01 | 38.96517 | 21.19230 | 24095 ft | 307 kts | 297° |
| 2026-05-07 13:01 | 38.97555 | 21.16866 | 24090 ft | 307 kts | 297° |
| 2026-05-07 13:02 | 38.98598 | 21.14468 | 24089 ft | 307 kts | 296° |
| 2026-05-07 13:02 | 38.99641 | 21.12068 | 24083 ft | 307 kts | 297° |
| 2026-05-07 13:02 | 39.00689 | 21.09658 | 24070 ft | 308 kts | 296° |
| 2026-05-07 13:02 | 39.01721 | 21.07283 | 24074 ft | 308 kts | 296° |
| 2026-05-07 13:03 | 39.02769 | 21.04875 | 24080 ft | 308 kts | 297° |
| 2026-05-07 13:03 | 39.03811 | 21.02471 | 24071 ft | 308 kts | 296° |
| 2026-05-07 13:03 | 39.04851 | 21.00067 | 24054 ft | 308 kts | 296° |
| 2026-05-07 13:03 | 39.05894 | 20.97652 | 24045 ft | 309 kts | 296° |
| 2026-05-07 13:04 | 39.06936 | 20.95240 | 24054 ft | 309 kts | 296° |
| 2026-05-07 13:04 | 39.07980 | 20.92819 | 24058 ft | 309 kts | 296° |
| 2026-05-07 13:04 | 39.09022 | 20.90402 | 23947 ft | 311 kts | 296° |
| 2026-05-07 13:04 | 39.10083 | 20.87936 | 23445 ft | 314 kts | 296° |
| 2026-05-07 13:05 | 39.11129 | 20.85503 | 22943 ft | 315 kts | 296° |
| 2026-05-07 13:05 | 39.12200 | 20.83018 | 22434 ft | 314 kts | 297° |
| 2026-05-07 13:05 | 39.13248 | 20.80619 | 21931 ft | 310 kts | 296° |
| 2026-05-07 13:05 | 39.14294 | 20.78213 | 21420 ft | 307 kts | 296° |
| 2026-05-07 13:06 | 39.15315 | 20.75816 | 20908 ft | 304 kts | 295° |
| 2026-05-07 13:06 | 39.16337 | 20.73417 | 20405 ft | 303 kts | 295° |
| 2026-05-07 13:06 | 39.17334 | 20.71080 | 19901 ft | 302 kts | 295° |
| 2026-05-07 13:06 | 39.18354 | 20.68718 | 19402 ft | 303 kts | 296° |
| 2026-05-07 13:07 | 39.19398 | 20.66291 | 18925 ft | 316 kts | 295° |
| 2026-05-07 13:07 | 39.20472 | 20.63770 | 18406 ft | 327 kts | 295° |
| 2026-05-07 13:07 | 39.21578 | 20.61179 | 17873 ft | 329 kts | 295° |
| 2026-05-07 13:07 | 39.22671 | 20.58613 | 17317 ft | 327 kts | 295° |
| 2026-05-07 13:08 | 39.23761 | 20.56055 | 16789 ft | 325 kts | 295° |
| 2026-05-07 13:08 | 39.24853 | 20.53507 | 16248 ft | 325 kts | 295° |
| 2026-05-07 13:08 | 39.25937 | 20.50967 | 15708 ft | 323 kts | 295° |
| 2026-05-07 13:08 | 39.27009 | 20.48452 | 15173 ft | 322 kts | 294° |
| 2026-05-07 13:09 | 39.28084 | 20.45923 | 14637 ft | 321 kts | 294° |
| 2026-05-07 13:09 | 39.29149 | 20.43416 | 14069 ft | 321 kts | 295° |
| 2026-05-07 13:09 | 39.30219 | 20.40895 | 13556 ft | 320 kts | 294° |
| 2026-05-07 13:09 | 39.31282 | 20.38386 | 13026 ft | 317 kts | 295° |
| 2026-05-07 13:10 | 39.32308 | 20.35959 | 12723 ft | 295 kts | 294° |
| 2026-05-07 13:10 | 39.33243 | 20.33763 | 12778 ft | 267 kts | 294° |
| 2026-05-07 13:10 | 39.34087 | 20.31776 | 12802 ft | 244 kts | 292° |
| 2026-05-07 13:10 | 39.34897 | 20.29847 | 12148 ft | 250 kts | 293° |
| 2026-05-07 13:11 | 39.35730 | 20.27848 | 11368 ft | 260 kts | 294° |
| 2026-05-07 13:11 | 39.36604 | 20.25762 | 10558 ft | 268 kts | 294° |
| 2026-05-07 13:11 | 39.37497 | 20.23634 | 9780 ft | 275 kts | 294° |
| 2026-05-07 13:11 | 39.38402 | 20.21452 | 8983 ft | 281 kts | 295° |
| 2026-05-07 13:12 | 39.39330 | 20.19247 | 8345 ft | 277 kts | 295° |
| 2026-05-07 13:12 | 39.40232 | 20.17126 | 8075 ft | 263 kts | 296° |
| 2026-05-07 13:12 | 39.41108 | 20.15088 | 7618 ft | 257 kts | 296° |
| 2026-05-07 13:12 | 39.41965 | 20.13099 | 7269 ft | 249 kts | 295° |
| 2026-05-07 13:13 | 39.42804 | 20.11159 | 6737 ft | 250 kts | 298° |
| 2026-05-07 13:13 | 39.43658 | 20.09230 | 6243 ft | 248 kts | 297° |
| 2026-05-07 13:13 | 39.44599 | 20.07379 | 5613 ft | 245 kts | 308° |
| 2026-05-07 13:13 | 39.45762 | 20.05887 | 5030 ft | 231 kts | 320° |
| 2026-05-07 13:14 | 39.46973 | 20.04612 | 4501 ft | 217 kts | 320° |
| 2026-05-07 13:14 | 39.48105 | 20.03388 | 3882 ft | 212 kts | 319° |
| 2026-05-07 13:14 | 39.49214 | 20.02160 | 3328 ft | 212 kts | 320° |
| 2026-05-07 13:14 | 39.50314 | 20.00948 | 2839 ft | 203 kts | 320° |
| 2026-05-07 13:15 | 39.51345 | 19.99775 | 2424 ft | 189 kts | 319° |
| 2026-05-07 13:15 | 39.52310 | 19.98647 | 2037 ft | 185 kts | 320° |
| 2026-05-07 13:15 | 39.53240 | 19.97561 | 1568 ft | 179 kts | 318° |
| 2026-05-07 13:15 | 39.54160 | 19.96452 | 1359 ft | 175 kts | 317° |
| 2026-05-07 13:16 | 39.55024 | 19.95425 | 1107 ft | 165 kts | 318° |
| 2026-05-07 13:16 | 39.55864 | 19.94441 | 931 ft | 163 kts | 319° |
| 2026-05-07 13:16 | 39.56699 | 19.93478 | 682 ft | 159 kts | 320° |
| 2026-05-07 13:16 | 39.57502 | 19.92517 | 462 ft | 156 kts | 317° |
| 2026-05-07 13:17 | 39.58405 | 19.91747 | 217 ft | 156 kts | 340° |
| 2026-05-07 13:17 | 39.59449 | 19.91406 | 28 ft | 151 kts | 349° |
| 2026-05-07 13:17 | 39.60365 | 19.91169 | 17 ft | 90 kts | 347° |
| 2026-05-07 13:17 | 39.60794 | 19.91057 | 20 ft | 48 kts | 349° |
| 2026-05-07 13:18 | 39.60997 | 19.91008 | 20 ft | 10 kts | 2° |
| 2026-05-07 13:18 | 39.61046 | 19.91061 | 21 ft | 8 kts | 51° |
| 2026-05-07 13:18 | 39.61053 | 19.91118 | 21 ft | 5 kts | 142° |
| 2026-05-07 13:18 | 39.61018 | 19.91131 | 22 ft | 5 kts | 169° |
| 2026-05-07 13:19 | 39.60961 | 19.91146 | 22 ft | 8 kts | 168° |
| 2026-05-07 13:19 | 39.60912 | 19.91160 | 22 ft | 6 kts | 168° |
| 2026-05-07 13:19 | 39.60872 | 19.91170 | 21 ft | 5 kts | 170° |
| 2026-05-07 13:19 | 39.60833 | 19.91179 | 21 ft | 6 kts | 169° |
| 2026-05-07 13:20 | 39.60782 | 19.91192 | 21 ft | 8 kts | 168° |
| 2026-05-07 13:20 | 39.60721 | 19.91209 | 21 ft | 9 kts | 168° |
| 2026-05-07 13:20 | 39.60717 | 19.91210 | 21 ft | 0 kts | 168° |
| 2026-05-07 13:21 | 39.60715 | 19.91211 | 21 ft | 3 kts | 167° |
| 2026-05-07 13:21 | 39.60695 | 19.91234 | 21 ft | 0 kts | 105° |
| 2026-05-07 13:21 | 39.60689 | 19.91255 | 21 ft | 6 kts | 118° |
| 2026-05-07 13:22 | 39.60654 | 19.91277 | 21 ft | 5 kts | 169° |
| 2026-05-07 13:22 | 39.60628 | 19.91283 | 21 ft | 0 kts | 169° |